Terminal Aerodrome Forecast
Issued by NWS

Home | Current Version | Previous Version | Text Only | Print | Product List | Glossary On
Versions: 1 2 3 4 5 6 7 8 9 10 11 12
937
FTUS42 TJSJ 170541
TAFNCM
TAF
TNCM 170541Z 1706/1806 07011KT P6SM -SHRA FEW016 SCT018 SCT090
     FM171400 07015KT P6SM VCSH FEW022 SCT035
     FM172230 07010KT P6SM FEW016 FEW018 SCT050=

USA.gov is the U.S. government's official web portal to all federal, state and local government web resources and services.